KGWW

Wayne Executive Jetport Airport

Goldsboro, North Carolina, USA
METAR KGWW 172020Z AUTO 27004KT 10SM CLR 21/09 A3010 RMK AO2 T02050091
Observed Flight Rules
Oct-17 @ 20:20 UTC (24 minutes ago) Visual Flight Rules
Wind Visibility Clouds
270° at 4 knots 10 miles
  • Clear skies
Temperatures Readings
Current 21°C / 70°F
Dewpoint 9°C / 48°F
Humidity 46%
Altimeter 30.1" Hg
Pressure 1019 hPa
Elevation 41
METAR KGWW 172020Z AUTO 27004KT 10SM CLR 21/09 A3010 RMK AO2 T02050091
Observed Flight Rules
Oct-17 @ 20:20 UTC
(24 minutes ago)
VFR
Wind Visibility
270° at 4 knots 10 miles
Clouds
  • Clear skies
Temperature Dewpoint
21°C / 70°F 9°C / 48°F
Humidity Altimeter Pressure
46% 30.1" Hg 1019 hPa